createdAt,value
2024-01-06T00:02:09.937Z,3.40
2024-01-06T00:04:38.462Z,3.43
2024-01-06T00:07:07.071Z,3.43
2024-01-06T00:09:35.649Z,3.43
2024-01-06T00:12:04.813Z,3.39
2024-01-06T00:14:33.340Z,3.29
2024-01-06T00:17:01.944Z,3.37
2024-01-06T00:19:30.588Z,3.32
2024-01-06T00:21:59.144Z,3.32
2024-01-06T00:24:27.705Z,3.33
2024-01-06T00:26:56.998Z,3.36
2024-01-06T00:29:25.849Z,3.40
2024-01-06T00:31:54.365Z,3.39
2024-01-06T00:34:23.589Z,3.38
2024-01-06T00:36:52.290Z,3.38
2024-01-06T00:39:21.856Z,3.36
2024-01-06T00:41:50.473Z,3.39
2024-01-06T00:44:18.992Z,3.39
2024-01-06T00:46:47.536Z,3.38
2024-01-06T00:49:16.260Z,3.35
2024-01-06T00:51:44.788Z,3.31
2024-01-06T00:54:13.573Z,3.25
2024-01-06T00:56:43.664Z,3.21
2024-01-06T00:59:12.123Z,3.18
2024-01-06T01:01:42.447Z,3.10
2024-01-06T01:04:12.318Z,3.12
2024-01-06T01:06:41.821Z,3.13
2024-01-06T01:09:14.616Z,3.10
2024-01-06T01:11:43.785Z,3.08
2024-01-06T01:14:12.469Z,3.08
2024-01-06T01:16:40.981Z,3.09
2024-01-06T01:19:09.614Z,3.12
2024-01-06T01:21:38.280Z,3.14
2024-01-06T01:24:06.939Z,3.15
2024-01-06T01:26:35.519Z,3.18
2024-01-06T01:29:04.080Z,3.18
2024-01-06T01:31:32.920Z,3.17
2024-01-06T01:34:01.820Z,3.15
2024-01-06T01:36:30.685Z,3.15
2024-01-06T01:38:59.907Z,3.09
2024-01-06T01:41:29.906Z,3.09
2024-01-06T01:44:01.578Z,3.13
2024-01-06T01:46:31.352Z,3.13
2024-01-06T01:49:02.826Z,3.10
2024-01-06T01:51:35.551Z,3.09
2024-01-06T01:54:06.783Z,3.13
2024-01-06T01:56:36.052Z,3.07
2024-01-06T01:59:12.115Z,3.11
2024-01-06T02:01:44.110Z,3.09
2024-01-06T02:04:14.686Z,3.10
2024-01-06T02:06:43.385Z,3.05
2024-01-06T02:09:12.623Z,3.10
2024-01-06T02:11:41.120Z,3.11
2024-01-06T02:14:09.875Z,3.12
2024-01-06T02:16:38.463Z,3.13
2024-01-06T02:19:12.249Z,3.10
2024-01-06T02:21:45.546Z,3.11
2024-01-06T02:24:15.002Z,3.13
2024-01-06T02:26:44.646Z,3.13
2024-01-06T02:29:13.311Z,3.13
2024-01-06T02:31:41.881Z,3.15
2024-01-06T02:34:10.597Z,3.19
2024-01-06T02:36:39.240Z,3.21
2024-01-06T02:39:07.940Z,3.23
2024-01-06T02:41:36.493Z,3.31
2024-01-06T02:44:05.491Z,3.36
2024-01-06T02:46:34.079Z,3.38
2024-01-06T02:49:02.814Z,3.38
2024-01-06T02:51:31.553Z,3.33
2024-01-06T02:54:00.185Z,3.31
2024-01-06T02:56:28.701Z,3.28
2024-01-06T02:58:58.148Z,3.25
2024-01-06T03:01:27.080Z,3.21
2024-01-06T03:03:55.746Z,3.16
2024-01-06T03:06:24.536Z,3.15
2024-01-06T03:08:53.022Z,3.08
2024-01-06T03:11:21.542Z,3.16
2024-01-06T03:13:50.060Z,3.13
2024-01-06T03:16:18.779Z,3.14
2024-01-06T03:18:48.514Z,3.16
2024-01-06T03:21:21.773Z,3.19
2024-01-06T03:23:50.478Z,3.19
2024-01-06T03:26:19.692Z,3.19
2024-01-06T03:28:51.416Z,3.17
2024-01-06T03:31:20.081Z,3.11
2024-01-06T03:33:48.650Z,3.13
2024-01-06T03:36:18.619Z,3.08
2024-01-06T03:38:49.346Z,3.11
2024-01-06T03:41:18.040Z,3.14
2024-01-06T03:43:46.650Z,3.17
2024-01-06T03:46:15.260Z,3.21
2024-01-06T03:48:43.917Z,3.25
2024-01-06T03:51:14.369Z,3.23
2024-01-06T03:53:43.252Z,3.27
2024-01-06T03:56:11.816Z,3.25
2024-01-06T03:58:40.517Z,3.22
2024-01-06T04:01:09.124Z,3.24
2024-01-06T04:03:37.860Z,3.20
2024-01-06T04:06:06.619Z,3.23
2024-01-06T04:08:35.254Z,3.23
2024-01-06T04:11:05.310Z,3.19
2024-01-06T04:13:35.652Z,3.18
2024-01-06T04:16:04.730Z,3.22
2024-01-06T04:18:33.386Z,3.23
2024-01-06T04:21:02.151Z,3.28
2024-01-06T04:23:30.825Z,3.30
2024-01-06T04:25:59.357Z,3.35
2024-01-06T04:28:27.864Z,3.37
2024-01-06T04:30:56.586Z,3.35
2024-01-06T04:33:25.249Z,3.22
2024-01-06T04:35:53.874Z,3.14
2024-01-06T04:38:22.479Z,3.12
2024-01-06T04:40:50.994Z,3.00
2024-01-06T04:43:19.468Z,3.05
2024-01-06T04:45:48.672Z,3.09
2024-01-06T04:48:18.190Z,3.13
2024-01-06T04:50:46.643Z,3.18
2024-01-06T04:53:15.121Z,3.21
2024-01-06T04:55:43.716Z,3.26
2024-01-06T04:58:12.695Z,3.29
2024-01-06T05:00:41.511Z,3.30
2024-01-06T05:03:10.174Z,3.26
2024-01-06T05:05:38.835Z,3.21
2024-01-06T05:08:07.682Z,3.20
2024-01-06T05:10:36.306Z,3.13
2024-01-06T05:13:05.136Z,3.07
2024-01-06T05:15:33.794Z,2.95
2024-01-06T05:18:02.543Z,2.89
2024-01-06T05:20:31.162Z,2.89
2024-01-06T05:23:00.437Z,2.93
2024-01-06T05:25:29.207Z,2.94
2024-01-06T05:27:57.886Z,2.95
2024-01-06T05:30:26.621Z,2.88
2024-01-06T05:32:55.552Z,2.84
2024-01-06T05:35:24.514Z,2.81
2024-01-06T05:37:53.111Z,2.81
2024-01-06T05:40:21.888Z,2.82
2024-01-06T05:42:50.497Z,2.80
2024-01-06T05:45:19.144Z,2.75
2024-01-06T05:47:47.767Z,2.74
2024-01-06T05:50:17.906Z,2.74
2024-01-06T05:52:48.754Z,2.74
2024-01-06T05:55:17.524Z,2.73
2024-01-06T05:57:47.011Z,2.69
2024-01-06T06:00:20.969Z,2.65
2024-01-06T06:02:50.012Z,2.72
2024-01-06T06:05:18.691Z,2.73
2024-01-06T06:07:47.366Z,2.71
2024-01-06T06:10:17.589Z,2.76
2024-01-06T06:12:46.307Z,2.81
2024-01-06T06:15:17.017Z,2.89
2024-01-06T06:17:46.839Z,2.95
2024-01-06T06:20:15.760Z,3.01
2024-01-06T06:22:44.268Z,3.06
2024-01-06T06:25:12.821Z,3.14
2024-01-06T06:27:41.366Z,3.21
2024-01-06T06:30:10.788Z,3.18
2024-01-06T06:32:39.504Z,3.19
2024-01-06T06:35:10.276Z,3.21
2024-01-06T06:37:39.544Z,3.19
2024-01-06T06:40:09.632Z,3.21
2024-01-06T06:42:38.165Z,3.24
2024-01-06T06:45:07.224Z,3.24
2024-01-06T06:47:35.772Z,3.22
2024-01-06T06:50:04.781Z,3.27
2024-01-06T06:52:33.385Z,3.25
2024-01-06T06:55:01.968Z,3.43
2024-01-06T06:57:30.453Z,3.52
2024-01-06T06:59:59.022Z,3.55
2024-01-06T07:02:28.004Z,3.61
2024-01-06T07:04:56.725Z,3.65
2024-01-06T07:07:25.232Z,3.67
2024-01-06T07:09:55.853Z,3.70
2024-01-06T07:12:27.397Z,3.68
2024-01-06T07:14:57.234Z,3.75
2024-01-06T07:17:26.693Z,3.84
2024-01-06T07:19:55.435Z,3.90
2024-01-06T07:22:24.021Z,3.90
2024-01-06T07:24:52.756Z,3.93
2024-01-06T07:27:22.138Z,3.89
2024-01-06T07:29:50.826Z,3.96
2024-01-06T07:32:19.552Z,3.93
2024-01-06T07:34:48.164Z,4.01
2024-01-06T07:37:16.917Z,4.06
2024-01-06T07:39:45.563Z,4.08
2024-01-06T07:42:14.227Z,4.07
2024-01-06T07:44:42.887Z,4.12
2024-01-06T07:47:12.830Z,4.17
2024-01-06T07:49:42.775Z,4.16
2024-01-06T07:52:12.798Z,4.21
2024-01-06T07:54:41.294Z,4.26
2024-01-06T07:57:09.905Z,4.28
2024-01-06T07:59:38.482Z,4.28
2024-01-06T08:02:07.428Z,4.23
2024-01-06T08:04:36.109Z,4.34
2024-01-06T08:07:04.998Z,4.24
2024-01-06T08:09:33.859Z,4.31
2024-01-06T08:12:04.632Z,4.27
2024-01-06T08:14:33.144Z,4.31
2024-01-06T08:17:01.685Z,4.31
2024-01-06T08:19:32.068Z,4.31
2024-01-06T08:22:00.855Z,4.36
2024-01-06T08:24:31.113Z,4.44
2024-01-06T08:26:59.680Z,4.47
2024-01-06T08:29:28.350Z,4.45
2024-01-06T08:31:57.081Z,4.52
2024-01-06T08:34:26.834Z,4.56
2024-01-06T08:36:56.672Z,4.58
2024-01-06T08:39:26.093Z,4.58
2024-01-06T08:41:55.451Z,4.58
2024-01-06T08:44:25.286Z,4.61
2024-01-06T08:46:53.841Z,4.66
2024-01-06T08:49:22.379Z,4.71
2024-01-06T08:51:51.025Z,4.72
2024-01-06T08:54:19.799Z,4.72
2024-01-06T08:56:48.689Z,4.73
2024-01-06T08:59:17.172Z,4.85
2024-01-06T09:01:48.733Z,4.93
2024-01-06T09:04:20.375Z,4.98
2024-01-06T09:06:49.066Z,5.01
2024-01-06T09:09:17.841Z,5.04
2024-01-06T09:11:47.652Z,5.06
2024-01-06T09:14:16.983Z,5.12
2024-01-06T09:16:45.535Z,5.18
2024-01-06T09:19:14.427Z,5.25
2024-01-06T09:21:43.072Z,5.28
2024-01-06T09:24:11.690Z,5.30
2024-01-06T09:26:40.574Z,5.34
2024-01-06T09:29:10.308Z,5.32
2024-01-06T09:31:40.340Z,5.41
2024-01-06T09:34:11.610Z,5.44
2024-01-06T09:36:40.387Z,5.46
2024-01-06T09:39:09.615Z,5.48
2024-01-06T09:41:39.368Z,5.56
2024-01-06T09:44:09.613Z,5.66
2024-01-06T09:46:41.777Z,5.74
2024-01-06T09:49:10.626Z,5.84
2024-01-06T09:51:40.938Z,5.93
2024-01-06T09:54:15.437Z,5.99
2024-01-06T09:56:46.812Z,6.03
2024-01-06T09:59:16.631Z,6.06
2024-01-06T10:01:46.471Z,6.14
2024-01-06T10:04:19.703Z,6.17
2024-01-06T10:06:50.902Z,6.11
2024-01-06T10:09:19.575Z,6.12
2024-01-06T10:11:48.119Z,6.16
2024-01-06T10:14:16.722Z,6.26
2024-01-06T10:16:45.426Z,6.31
2024-01-06T10:19:14.677Z,6.37
2024-01-06T10:21:43.841Z,6.38
2024-01-06T10:24:12.932Z,6.47
2024-01-06T10:26:41.553Z,6.55
2024-01-06T10:29:10.310Z,6.62
2024-01-06T10:31:38.979Z,6.65
2024-01-06T10:34:08.234Z,6.71
2024-01-06T10:36:37.736Z,6.65
2024-01-06T10:39:13.599Z,6.64
2024-01-06T10:41:43.844Z,6.57
2024-01-06T10:44:14.198Z,6.63
2024-01-06T10:46:43.627Z,6.64
2024-01-06T10:49:13.860Z,6.61
2024-01-06T10:51:42.736Z,6.64
2024-01-06T10:54:14.559Z,6.65
2024-01-06T10:56:44.708Z,6.76
2024-01-06T10:59:14.992Z,6.84
2024-01-06T11:01:45.717Z,6.91
2024-01-06T11:04:15.552Z,6.99
2024-01-06T11:06:44.506Z,7.01
2024-01-06T11:09:29.599Z,7.12
2024-01-06T11:11:58.811Z,7.19
2024-01-06T11:14:34.518Z,7.22
2024-01-06T11:17:03.064Z,7.27
2024-01-06T11:19:38.632Z,7.26
2024-01-06T11:22:40.866Z,7.30
2024-01-06T11:25:16.538Z,7.24
2024-01-06T11:27:48.957Z,7.16
2024-01-06T11:30:27.617Z,7.18
2024-01-06T11:33:00.333Z,7.20
2024-01-06T11:35:31.234Z,7.25
2024-01-06T11:38:05.076Z,7.25
2024-01-06T11:40:38.489Z,7.30
2024-01-06T11:43:13.589Z,7.35
2024-01-06T11:46:08.633Z,7.37
2024-01-06T11:48:38.161Z,7.42
2024-01-06T11:51:06.717Z,7.34
2024-01-06T11:53:35.505Z,7.30
2024-01-06T11:56:06.012Z,7.26
2024-01-06T11:58:35.065Z,7.28
2024-01-06T12:01:03.909Z,7.28
2024-01-06T12:03:32.637Z,7.26
2024-01-06T12:06:04.713Z,7.23
2024-01-06T12:08:34.488Z,7.21
2024-01-06T12:11:05.513Z,7.22
2024-01-06T12:13:34.974Z,7.23
2024-01-06T12:16:03.791Z,7.27
2024-01-06T12:18:32.470Z,7.29
2024-01-06T12:21:01.188Z,7.31
2024-01-06T12:23:30.210Z,7.34
2024-01-06T12:25:58.873Z,7.39
2024-01-06T12:28:28.685Z,7.42
2024-01-06T12:30:57.784Z,7.44
2024-01-06T12:33:42.642Z,7.43
2024-01-06T12:36:21.165Z,7.32
2024-01-06T12:38:57.518Z,7.39
2024-01-06T12:41:26.068Z,7.40
2024-01-06T12:43:54.641Z,7.41
2024-01-06T12:46:23.714Z,7.43
2024-01-06T12:48:52.627Z,7.45
2024-01-06T12:51:21.256Z,7.43
2024-01-06T12:53:50.329Z,7.47
2024-01-06T12:56:19.698Z,7.36
2024-01-06T12:58:49.922Z,7.41
2024-01-06T13:01:19.073Z,7.40
2024-01-06T13:03:47.878Z,7.40
2024-01-06T13:06:17.447Z,7.41
2024-01-06T13:08:46.058Z,7.41
2024-01-06T13:11:14.837Z,7.39
2024-01-06T13:13:43.455Z,7.33
2024-01-06T13:16:12.606Z,7.39
2024-01-06T13:18:41.675Z,7.39
2024-01-06T13:21:10.318Z,7.36
2024-01-06T13:23:39.069Z,7.42
2024-01-06T13:26:08.345Z,7.38
2024-01-06T13:28:37.488Z,7.36
2024-01-06T13:31:09.701Z,7.34
2024-01-06T13:33:38.958Z,7.27
2024-01-06T13:36:08.126Z,7.26
2024-01-06T13:38:36.703Z,7.19
2024-01-06T13:41:05.546Z,7.20
2024-01-06T13:43:34.883Z,7.17
2024-01-06T13:46:04.210Z,7.13
2024-01-06T13:48:32.947Z,7.07
2024-01-06T13:51:01.529Z,6.97
2024-01-06T13:53:30.373Z,6.98
2024-01-06T13:55:58.931Z,6.92
2024-01-06T13:58:27.665Z,6.89
2024-01-06T14:00:56.290Z,6.89
2024-01-06T14:03:25.016Z,6.87
2024-01-06T14:05:56.271Z,6.85
2024-01-06T14:08:26.328Z,6.78
2024-01-06T14:10:55.218Z,6.78
2024-01-06T14:13:23.948Z,6.72
2024-01-06T14:15:52.698Z,6.66
2024-01-06T14:18:21.284Z,6.65
2024-01-06T14:20:49.978Z,6.64
2024-01-06T14:23:18.501Z,6.54
2024-01-06T14:25:47.245Z,6.59
2024-01-06T14:28:15.742Z,6.57
2024-01-06T14:30:44.485Z,6.55
2024-01-06T14:33:13.126Z,6.47
2024-01-06T14:35:43.202Z,6.47
2024-01-06T14:38:12.731Z,6.43
2024-01-06T14:40:41.564Z,6.40
2024-01-06T14:43:12.308Z,6.36
2024-01-06T14:45:42.138Z,6.31
2024-01-06T14:48:11.827Z,6.28
2024-01-06T14:50:40.530Z,6.20
2024-01-06T14:53:09.891Z,6.15
2024-01-06T14:55:39.307Z,6.18
2024-01-06T14:58:09.842Z,6.15
2024-01-06T15:00:38.629Z,6.09
2024-01-06T15:03:07.349Z,6.02
2024-01-06T15:05:36.157Z,6.06
2024-01-06T15:08:05.222Z,6.00
2024-01-06T15:10:33.693Z,6.03
2024-01-06T15:13:02.309Z,5.97
2024-01-06T15:15:30.888Z,6.01
2024-01-06T15:17:59.651Z,6.02
2024-01-06T15:20:30.222Z,6.04
2024-01-06T15:22:59.215Z,6.04
2024-01-06T15:25:29.602Z,6.00
2024-01-06T15:27:58.121Z,6.01
2024-01-06T15:30:26.686Z,6.01
2024-01-06T15:32:55.352Z,5.99
2024-01-06T15:35:24.488Z,5.95
2024-01-06T15:37:53.544Z,5.97
2024-01-06T15:40:22.221Z,5.90
2024-01-06T15:42:50.826Z,5.86
2024-01-06T15:45:19.438Z,5.76
2024-01-06T15:47:48.036Z,5.85
2024-01-06T15:50:16.761Z,5.81
2024-01-06T15:52:47.207Z,5.83
2024-01-06T15:55:17.097Z,5.86
2024-01-06T15:57:46.458Z,5.81
2024-01-06T16:00:15.775Z,5.84
2024-01-06T16:02:44.369Z,5.82
2024-01-06T16:05:14.868Z,5.76
2024-01-06T16:07:43.599Z,5.76
2024-01-06T16:10:12.838Z,5.76
2024-01-06T16:13:01.652Z,5.70
2024-01-06T16:15:30.824Z,5.75
2024-01-06T16:17:59.467Z,5.76
2024-01-06T16:20:28.063Z,5.82
2024-01-06T16:22:57.912Z,5.86
2024-01-06T16:25:26.806Z,5.90
2024-01-06T16:27:56.315Z,5.89
2024-01-06T16:30:25.010Z,5.95
2024-01-06T16:32:53.808Z,5.95
2024-01-06T16:35:22.546Z,5.92
2024-01-06T16:37:52.647Z,5.90
2024-01-06T16:40:21.165Z,5.88
2024-01-06T16:42:53.348Z,5.88
2024-01-06T16:45:22.021Z,5.88
2024-01-06T16:47:50.758Z,5.92
2024-01-06T16:50:19.304Z,5.90
2024-01-06T16:52:47.959Z,5.97
2024-01-06T16:55:16.764Z,6.00
2024-01-06T16:57:45.341Z,6.00
2024-01-06T17:00:14.550Z,5.97
2024-01-06T17:02:43.079Z,6.01
2024-01-06T17:05:11.846Z,5.95
2024-01-06T17:07:45.827Z,6.03
2024-01-06T17:10:17.778Z,6.00
2024-01-06T17:12:46.193Z,5.95
2024-01-06T17:15:15.229Z,5.91
2024-01-06T17:17:44.267Z,5.88
2024-01-06T17:20:13.014Z,5.83
2024-01-06T17:22:43.462Z,5.88
2024-01-06T17:25:16.146Z,5.90
2024-01-06T17:27:48.943Z,5.95
2024-01-06T17:30:18.942Z,5.98
2024-01-06T17:32:47.639Z,5.96
2024-01-06T17:35:16.454Z,6.04
2024-01-06T17:37:45.100Z,6.04
2024-01-06T17:40:14.425Z,6.00
2024-01-06T17:42:43.043Z,5.98
2024-01-06T17:45:12.039Z,5.94
2024-01-06T17:47:42.437Z,5.87
2024-01-06T17:50:11.423Z,5.82
2024-01-06T17:52:42.554Z,5.79
2024-01-06T17:55:11.776Z,5.78
2024-01-06T17:57:40.606Z,5.78
2024-01-06T18:00:10.650Z,5.75
2024-01-06T18:02:39.823Z,5.77
2024-01-06T18:05:09.701Z,5.78
2024-01-06T18:07:38.576Z,5.79
2024-01-06T18:10:09.940Z,5.74
2024-01-06T18:12:40.328Z,5.73
2024-01-06T18:15:09.199Z,5.75
2024-01-06T18:17:39.728Z,5.73
2024-01-06T18:20:09.693Z,5.69
2024-01-06T18:22:38.238Z,5.65
2024-01-06T18:25:07.459Z,5.59
2024-01-06T18:27:36.032Z,5.59
2024-01-06T18:30:05.377Z,5.59
2024-01-06T18:32:34.464Z,5.59
2024-01-06T18:35:03.607Z,5.55
2024-01-06T18:37:32.433Z,5.56
2024-01-06T18:40:01.196Z,5.58
2024-01-06T18:42:29.871Z,5.55
2024-01-06T18:44:58.659Z,5.55
2024-01-06T18:47:27.351Z,5.45
2024-01-06T18:49:57.048Z,5.52
2024-01-06T18:52:25.830Z,5.52
2024-01-06T18:54:54.433Z,5.45
2024-01-06T18:57:23.014Z,5.49
2024-01-06T18:59:52.050Z,5.50
2024-01-06T19:02:20.771Z,5.51
2024-01-06T19:04:49.353Z,5.49
2024-01-06T19:07:21.449Z,5.55
2024-01-06T19:09:50.662Z,5.54
2024-01-06T19:12:19.641Z,5.52
2024-01-06T19:14:48.373Z,5.51
2024-01-06T19:17:16.981Z,5.49
2024-01-06T19:19:45.800Z,5.36
2024-01-06T19:22:14.800Z,5.20
2024-01-06T19:24:44.291Z,5.02
2024-01-06T19:27:12.894Z,4.94
2024-01-06T19:29:44.519Z,4.78
2024-01-06T19:32:13.934Z,4.70
2024-01-06T19:34:43.050Z,4.65
2024-01-06T19:37:11.865Z,4.67
2024-01-06T19:39:40.521Z,4.62
2024-01-06T19:42:09.195Z,4.67
2024-01-06T19:44:39.499Z,4.61
2024-01-06T19:47:09.766Z,4.59
2024-01-06T19:49:38.620Z,4.59
2024-01-06T19:52:07.538Z,4.67
2024-01-06T19:54:37.957Z,4.79
2024-01-06T19:57:06.837Z,4.92
2024-01-06T19:59:35.361Z,4.97
2024-01-06T20:02:03.951Z,4.95
2024-01-06T20:04:32.529Z,4.94
2024-01-06T20:07:01.773Z,4.79
2024-01-06T20:09:30.475Z,4.72
2024-01-06T20:11:59.138Z,4.65
2024-01-06T20:14:27.813Z,4.54
2024-01-06T20:16:57.183Z,4.50
2024-01-06T20:19:26.992Z,4.45
2024-01-06T20:21:56.762Z,4.57
2024-01-06T20:24:26.190Z,4.60
2024-01-06T20:26:57.758Z,4.42
2024-01-06T20:29:27.357Z,4.45
2024-01-06T20:31:56.384Z,4.46
2024-01-06T20:34:28.251Z,4.38
2024-01-06T20:36:57.705Z,4.35
2024-01-06T20:39:26.388Z,4.43
2024-01-06T20:41:55.001Z,4.58
2024-01-06T20:44:23.750Z,4.68
2024-01-06T20:46:54.261Z,4.80
2024-01-06T20:49:25.018Z,4.84
2024-01-06T20:51:54.754Z,4.92
2024-01-06T20:54:24.644Z,4.88
2024-01-06T20:56:56.150Z,4.86
2024-01-06T20:59:24.989Z,4.75
2024-01-06T21:01:54.360Z,4.73
2024-01-06T21:04:25.705Z,4.77
2024-01-06T21:06:54.369Z,4.83
2024-01-06T21:09:27.178Z,4.90
2024-01-06T21:11:56.135Z,4.90
2024-01-06T21:14:24.662Z,4.90
2024-01-06T21:16:53.324Z,4.95
2024-01-06T21:19:23.883Z,4.97
2024-01-06T21:21:53.474Z,5.00
2024-01-06T21:24:26.179Z,5.00
2024-01-06T21:26:55.283Z,4.92
2024-01-06T21:29:24.251Z,4.94
2024-01-06T21:31:52.832Z,4.71
2024-01-06T21:34:25.506Z,4.67
2024-01-06T21:36:54.792Z,4.57
2024-01-06T21:39:23.817Z,4.60
2024-01-06T21:55:15.154Z,4.42
2024-01-06T21:57:44.580Z,4.34
2024-01-06T22:00:17.149Z,4.33
2024-01-06T22:02:46.252Z,4.26
2024-01-06T22:05:14.887Z,4.35
2024-01-06T22:07:43.533Z,4.38
2024-01-06T22:10:12.099Z,4.38
2024-01-06T22:12:40.781Z,4.32
2024-01-06T22:15:10.187Z,4.28
2024-01-06T22:17:38.824Z,4.31
2024-01-06T22:20:09.092Z,4.26
2024-01-06T22:22:37.618Z,4.17
2024-01-06T22:25:06.942Z,4.14
2024-01-06T22:27:35.535Z,4.12
2024-01-06T22:30:07.847Z,4.05
2024-01-06T22:32:37.012Z,3.77
2024-01-06T22:35:06.326Z,3.53
2024-01-06T22:37:34.970Z,3.43
2024-01-06T22:40:06.315Z,3.23
2024-01-06T22:42:34.905Z,3.30
2024-01-06T22:45:03.649Z,3.32
2024-01-06T22:47:32.492Z,3.27
2024-01-06T22:50:01.049Z,3.18
2024-01-06T22:52:29.663Z,3.17
2024-01-06T22:54:58.280Z,3.25
2024-01-06T22:57:27.051Z,3.21
2024-01-06T22:59:55.674Z,3.18
2024-01-06T23:02:24.440Z,3.22
2024-01-06T23:04:54.782Z,3.19
2024-01-06T23:07:24.191Z,3.20
2024-01-06T23:09:53.095Z,3.23
2024-01-06T23:12:22.137Z,3.25
2024-01-06T23:14:50.736Z,3.27
2024-01-06T23:17:19.369Z,3.29
2024-01-06T23:19:48.168Z,3.32
2024-01-06T23:22:16.902Z,3.34
2024-01-06T23:24:45.598Z,3.33
2024-01-06T23:27:14.088Z,3.43
2024-01-06T23:29:42.608Z,3.51
2024-01-06T23:32:11.186Z,3.55
2024-01-06T23:34:42.943Z,3.55
2024-01-06T23:37:12.173Z,3.68
2024-01-06T23:39:40.827Z,3.68
2024-01-06T23:42:10.692Z,3.64
2024-01-06T23:44:40.718Z,3.54
2024-01-06T23:47:09.676Z,3.48
2024-01-06T23:49:38.329Z,3.50
2024-01-06T23:52:07.038Z,3.53
2024-01-06T23:54:42.870Z,3.58
2024-01-06T23:57:11.385Z,3.68
2024-01-06T23:59:42.162Z,3.71
